sensor_id;sensor_type;location;lat;lon;timestamp;pressure;altitude;pressure_sealevel;temperature;humidity
50430;BME280;36359;41.556;-8.418;2023-09-19T00:00:38;100542.97;;;19.57;87.59
50430;BME280;36359;41.556;-8.418;2023-09-19T00:03:05;100545.28;;;19.95;85.92
50430;BME280;36359;41.556;-8.418;2023-09-19T00:05:34;100542.63;;;20.22;84.28
50430;BME280;36359;41.556;-8.418;2023-09-19T00:08:02;100546.88;;;20.31;83.20
50430;BME280;36359;41.556;-8.418;2023-09-19T00:10:34;100538.00;;;19.74;83.39
50430;BME280;36359;41.556;-8.418;2023-09-19T00:13:05;100546.38;;;20.07;84.65
50430;BME280;36359;41.556;-8.418;2023-09-19T00:15:39;100553.31;;;19.90;84.68
50430;BME280;36359;41.556;-8.418;2023-09-19T00:18:06;100543.63;;;20.14;84.14
50430;BME280;36359;41.556;-8.418;2023-09-19T00:20:32;100543.97;;;19.91;83.18
50430;BME280;36359;41.556;-8.418;2023-09-19T00:23:00;100535.97;;;19.61;84.09
50430;BME280;36359;41.556;-8.418;2023-09-19T00:25:34;100536.94;;;19.75;86.06
50430;BME280;36359;41.556;-8.418;2023-09-19T00:28:01;100537.22;;;19.52;85.33
50430;BME280;36359;41.556;-8.418;2023-09-19T00:30:27;100542.03;;;19.78;86.02
50430;BME280;36359;41.556;-8.418;2023-09-19T00:32:53;100541.47;;;19.61;85.88
50430;BME280;36359;41.556;-8.418;2023-09-19T00:35:18;100539.34;;;19.98;85.18
50430;BME280;36359;41.556;-8.418;2023-09-19T00:37:47;100537.09;;;20.15;84.19
50430;BME280;36359;41.556;-8.418;2023-09-19T00:40:13;100531.66;;;19.39;84.98
50430;BME280;36359;41.556;-8.418;2023-09-19T00:42:42;100545.56;;;19.31;88.55
50430;BME280;36359;41.556;-8.418;2023-09-19T00:45:08;100531.44;;;19.47;87.72
50430;BME280;36359;41.556;-8.418;2023-09-19T00:47:44;100533.38;;;19.88;85.09
50430;BME280;36359;41.556;-8.418;2023-09-19T00:50:11;100533.63;;;19.93;85.32
50430;BME280;36359;41.556;-8.418;2023-09-19T00:52:40;100532.09;;;19.77;83.16
50430;BME280;36359;41.556;-8.418;2023-09-19T00:55:09;100527.09;;;20.01;83.86
50430;BME280;36359;41.556;-8.418;2023-09-19T00:57:36;100530.69;;;19.60;86.35
50430;BME280;36359;41.556;-8.418;2023-09-19T01:00:05;100524.00;;;19.69;85.08
50430;BME280;36359;41.556;-8.418;2023-09-19T01:02:34;100529.84;;;19.59;84.61
50430;BME280;36359;41.556;-8.418;2023-09-19T01:05:01;100516.03;;;19.94;85.10
50430;BME280;36359;41.556;-8.418;2023-09-19T01:07:27;100531.34;;;20.10;83.92
50430;BME280;36359;41.556;-8.418;2023-09-19T01:09:59;100519.91;;;20.06;83.11
50430;BME280;36359;41.556;-8.418;2023-09-19T01:15:08;100517.63;;;20.36;82.52
50430;BME280;36359;41.556;-8.418;2023-09-19T01:26:40;100512.13;;;19.34;85.31
50430;BME280;36359;41.556;-8.418;2023-09-19T01:29:33;100505.66;;;19.13;88.15
50430;BME280;36359;41.556;-8.418;2023-09-19T01:32:03;100508.16;;;19.78;85.25
50430;BME280;36359;41.556;-8.418;2023-09-19T01:34:55;100507.91;;;19.38;85.33
50430;BME280;36359;41.556;-8.418;2023-09-19T01:37:29;100511.13;;;19.06;88.00
50430;BME280;36359;41.556;-8.418;2023-09-19T01:40:02;100513.72;;;18.65;88.80
50430;BME280;36359;41.556;-8.418;2023-09-19T01:45:59;100510.34;;;18.42;93.81
50430;BME280;36359;41.556;-8.418;2023-09-19T01:51:02;100512.28;;;19.60;86.89
50430;BME280;36359;41.556;-8.418;2023-09-19T01:54:00;100512.00;;;19.48;85.22
50430;BME280;36359;41.556;-8.418;2023-09-19T01:59:45;100509.22;;;19.42;86.55
50430;BME280;36359;41.556;-8.418;2023-09-19T02:02:15;100507.31;;;19.77;85.49
50430;BME280;36359;41.556;-8.418;2023-09-19T02:04:43;100512.47;;;19.59;85.26
50430;BME280;36359;41.556;-8.418;2023-09-19T02:07:09;100511.16;;;19.13;87.80
50430;BME280;36359;41.556;-8.418;2023-09-19T02:09:34;100515.19;;;19.52;86.79
50430;BME280;36359;41.556;-8.418;2023-09-19T02:12:04;100508.53;;;19.68;85.98
50430;BME280;36359;41.556;-8.418;2023-09-19T02:14:30;100501.56;;;19.79;84.68
50430;BME280;36359;41.556;-8.418;2023-09-19T02:16:56;100491.44;;;19.86;83.88
50430;BME280;36359;41.556;-8.418;2023-09-19T02:19:22;100499.22;;;18.99;nan
50430;BME280;36359;41.556;-8.418;2023-09-19T02:21:48;100490.47;;;17.82;91.67
50430;BME280;36359;41.556;-8.418;2023-09-19T02:24:15;100491.81;;;17.86;93.11
50430;BME280;36359;41.556;-8.418;2023-09-19T02:26:41;100491.00;;;17.26;97.58
50430;BME280;36359;41.556;-8.418;2023-09-19T02:29:08;100484.66;;;16.96;98.22
50430;BME280;36359;41.556;-8.418;2023-09-19T02:31:35;100485.47;;;17.85;96.84
50430;BME280;36359;41.556;-8.418;2023-09-19T02:34:00;100479.53;;;18.03;96.55
50430;BME280;36359;41.556;-8.418;2023-09-19T02:36:26;100472.06;;;18.40;94.16
50430;BME280;36359;41.556;-8.418;2023-09-19T02:38:52;100471.19;;;18.33;91.77
50430;BME280;36359;41.556;-8.418;2023-09-19T02:41:18;100473.44;;;17.71;93.12
50430;BME280;36359;41.556;-8.418;2023-09-19T02:43:44;100472.94;;;17.32;95.77
50430;BME280;36359;41.556;-8.418;2023-09-19T02:46:10;100481.38;;;17.00;97.72
50430;BME280;36359;41.556;-8.418;2023-09-19T02:48:37;100473.91;;;16.56;100.00
50430;BME280;36359;41.556;-8.418;2023-09-19T02:51:03;100480.38;;;15.95;100.00
50430;BME280;36359;41.556;-8.418;2023-09-19T02:53:29;100470.78;;;16.22;100.00
50430;BME280;36359;41.556;-8.418;2023-09-19T02:55:56;100469.13;;;16.35;100.00
50430;BME280;36359;41.556;-8.418;2023-09-19T02:58:22;100471.25;;;17.16;100.00
50430;BME280;36359;41.556;-8.418;2023-09-19T03:00:49;100457.59;;;17.52;100.00
50430;BME280;36359;41.556;-8.418;2023-09-19T03:03:16;100459.13;;;18.34;96.47
50430;BME280;36359;41.556;-8.418;2023-09-19T03:05:43;100464.50;;;18.92;91.88
50430;BME280;36359;41.556;-8.418;2023-09-19T03:08:14;100465.13;;;19.28;89.48
50430;BME280;36359;41.556;-8.418;2023-09-19T03:10:40;100458.81;;;19.35;87.66
50430;BME280;36359;41.556;-8.418;2023-09-19T03:13:06;100457.00;;;19.55;85.39
50430;BME280;36359;41.556;-8.418;2023-09-19T03:15:35;100450.34;;;19.36;87.42
50430;BME280;36359;41.556;-8.418;2023-09-19T03:18:04;100449.16;;;19.52;86.62
50430;BME280;36359;41.556;-8.418;2023-09-19T03:20:32;100445.66;;;19.78;84.93
50430;BME280;36359;41.556;-8.418;2023-09-19T03:22:57;100443.19;;;19.42;83.64
50430;BME280;36359;41.556;-8.418;2023-09-19T03:25:23;100448.03;;;19.40;85.11
50430;BME280;36359;41.556;-8.418;2023-09-19T03:27:51;100438.78;;;19.54;85.79
50430;BME280;36359;41.556;-8.418;2023-09-19T03:30:18;100440.34;;;19.70;84.63
50430;BME280;36359;41.556;-8.418;2023-09-19T03:32:47;100452.03;;;19.31;84.26
50430;BME280;36359;41.556;-8.418;2023-09-19T03:35:17;100442.16;;;18.52;85.88
50430;BME280;36359;41.556;-8.418;2023-09-19T03:37:43;100436.00;;;18.22;90.23
50430;BME280;36359;41.556;-8.418;2023-09-19T03:40:10;100432.31;;;18.36;90.90
50430;BME280;36359;41.556;-8.418;2023-09-19T03:42:40;100423.81;;;18.80;89.35
50430;BME280;36359;41.556;-8.418;2023-09-19T03:45:09;100430.41;;;19.21;87.37
50430;BME280;36359;41.556;-8.418;2023-09-19T03:47:41;100417.78;;;19.46;85.70
50430;BME280;36359;41.556;-8.418;2023-09-19T03:50:09;100424.63;;;19.64;84.17
50430;BME280;36359;41.556;-8.418;2023-09-19T03:52:37;100423.19;;;18.85;84.73
50430;BME280;36359;41.556;-8.418;2023-09-19T03:55:03;100425.00;;;18.71;85.58
50430;BME280;36359;41.556;-8.418;2023-09-19T03:57:30;100424.09;;;18.92;87.96
50430;BME280;36359;41.556;-8.418;2023-09-19T03:59:56;100427.13;;;19.52;85.45
50430;BME280;36359;41.556;-8.418;2023-09-19T04:02:22;100429.38;;;19.77;83.66
50430;BME280;36359;41.556;-8.418;2023-09-19T04:04:52;100423.41;;;19.18;83.38
50430;BME280;36359;41.556;-8.418;2023-09-19T04:07:18;100417.56;;;18.65;85.35
50430;BME280;36359;41.556;-8.418;2023-09-19T04:09:48;100419.91;;;18.68;85.13
50430;BME280;36359;41.556;-8.418;2023-09-19T04:12:14;100421.66;;;18.26;89.26
50430;BME280;36359;41.556;-8.418;2023-09-19T04:14:42;100418.50;;;18.51;86.34
50430;BME280;36359;41.556;-8.418;2023-09-19T04:17:09;100415.00;;;18.92;83.06
50430;BME280;36359;41.556;-8.418;2023-09-19T04:19:35;100419.28;;;19.01;87.38
50430;BME280;36359;41.556;-8.418;2023-09-19T04:22:02;100418.97;;;19.24;85.75
50430;BME280;36359;41.556;-8.418;2023-09-19T04:24:29;100408.47;;;19.41;85.00
50430;BME280;36359;41.556;-8.418;2023-09-19T04:26:54;100416.59;;;19.62;81.96
50430;BME280;36359;41.556;-8.418;2023-09-19T04:29:20;100403.28;;;19.66;83.34
50430;BME280;36359;41.556;-8.418;2023-09-19T04:31:46;100404.25;;;18.69;83.14
50430;BME280;36359;41.556;-8.418;2023-09-19T04:34:11;100405.53;;;18.16;85.17
50430;BME280;36359;41.556;-8.418;2023-09-19T04:36:43;100403.88;;;17.79;88.40
50430;BME280;36359;41.556;-8.418;2023-09-19T04:39:09;100404.16;;;18.06;88.81
50430;BME280;36359;41.556;-8.418;2023-09-19T04:41:36;100412.25;;;18.92;87.45
50430;BME280;36359;41.556;-8.418;2023-09-19T04:44:06;100400.72;;;17.61;89.20
50430;BME280;36359;41.556;-8.418;2023-09-19T04:46:33;100401.94;;;17.22;91.65
50430;BME280;36359;41.556;-8.418;2023-09-19T04:48:59;100401.75;;;17.09;92.75
50430;BME280;36359;41.556;-8.418;2023-09-19T04:51:26;100403.41;;;17.76;94.21
50430;BME280;36359;41.556;-8.418;2023-09-19T04:53:54;100401.00;;;18.58;89.42
50430;BME280;36359;41.556;-8.418;2023-09-19T04:56:20;100407.09;;;19.23;85.72
50430;BME280;36359;41.556;-8.418;2023-09-19T04:58:46;100412.19;;;19.26;84.54
50430;BME280;36359;41.556;-8.418;2023-09-19T05:01:12;100405.94;;;19.39;83.94
50430;BME280;36359;41.556;-8.418;2023-09-19T05:03:40;100404.88;;;19.47;83.82
50430;BME280;36359;41.556;-8.418;2023-09-19T05:06:06;100406.63;;;19.61;81.13
50430;BME280;36359;41.556;-8.418;2023-09-19T05:08:31;100408.66;;;18.63;82.52
50430;BME280;36359;41.556;-8.418;2023-09-19T05:10:57;100408.78;;;18.55;86.34
50430;BME280;36359;41.556;-8.418;2023-09-19T05:13:23;100415.78;;;19.20;84.61
50430;BME280;36359;41.556;-8.418;2023-09-19T05:15:49;100419.13;;;19.64;81.78
50430;BME280;36359;41.556;-8.418;2023-09-19T05:18:17;100421.28;;;18.08;85.32
50430;BME280;36359;41.556;-8.418;2023-09-19T05:20:43;100418.00;;;17.25;87.79
50430;BME280;36359;41.556;-8.418;2023-09-19T05:23:09;100423.63;;;16.49;92.94
50430;BME280;36359;41.556;-8.418;2023-09-19T05:25:38;100421.47;;;16.60;94.53
50430;BME280;36359;41.556;-8.418;2023-09-19T05:28:05;100421.16;;;16.77;94.28
50430;BME280;36359;41.556;-8.418;2023-09-19T05:30:32;100422.88;;;16.70;95.91
50430;BME280;36359;41.556;-8.418;2023-09-19T05:32:58;100421.81;;;17.24;93.85
50430;BME280;36359;41.556;-8.418;2023-09-19T05:35:24;100417.34;;;17.74;93.66
50430;BME280;36359;41.556;-8.418;2023-09-19T05:37:51;100416.84;;;17.34;92.78
50430;BME280;36359;41.556;-8.418;2023-09-19T05:40:18;100422.91;;;17.44;92.96
50430;BME280;36359;41.556;-8.418;2023-09-19T05:42:43;100428.69;;;17.05;93.61
50430;BME280;36359;41.556;-8.418;2023-09-19T05:45:10;100429.38;;;17.58;92.63
50430;BME280;36359;41.556;-8.418;2023-09-19T05:47:42;100437.69;;;17.14;92.87
50430;BME280;36359;41.556;-8.418;2023-09-19T05:50:09;100436.13;;;16.67;94.56
50430;BME280;36359;41.556;-8.418;2023-09-19T05:52:36;100435.34;;;16.20;96.55
50430;BME280;36359;41.556;-8.418;2023-09-19T05:55:06;100435.03;;;16.38;98.75
50430;BME280;36359;41.556;-8.418;2023-09-19T05:57:33;100431.00;;;17.53;95.04
50430;BME280;36359;41.556;-8.418;2023-09-19T05:59:59;100431.03;;;18.10;91.97
50430;BME280;36359;41.556;-8.418;2023-09-19T06:02:25;100435.78;;;18.45;89.56
50430;BME280;36359;41.556;-8.418;2023-09-19T06:04:54;100432.00;;;18.52;88.51
50430;BME280;36359;41.556;-8.418;2023-09-19T06:07:24;100435.75;;;18.94;86.43
50430;BME280;36359;41.556;-8.418;2023-09-19T06:09:52;100439.97;;;18.97;84.93
50430;BME280;36359;41.556;-8.418;2023-09-19T06:12:19;100437.53;;;18.74;85.04
50430;BME280;36359;41.556;-8.418;2023-09-19T06:14:45;100436.59;;;18.95;85.23
50430;BME280;36359;41.556;-8.418;2023-09-19T06:17:11;100440.84;;;18.97;82.71
50430;BME280;36359;41.556;-8.418;2023-09-19T06:19:37;100437.66;;;18.72;81.96
50430;BME280;36359;41.556;-8.418;2023-09-19T06:22:03;100441.22;;;17.95;83.36
50430;BME280;36359;41.556;-8.418;2023-09-19T06:24:29;100446.19;;;17.19;86.73
50430;BME280;36359;41.556;-8.418;2023-09-19T06:26:54;100451.03;;;17.83;90.73
50430;BME280;36359;41.556;-8.418;2023-09-19T06:29:20;100450.16;;;18.47;87.68
50430;BME280;36359;41.556;-8.418;2023-09-19T06:31:48;100450.16;;;19.03;84.49
50430;BME280;36359;41.556;-8.418;2023-09-19T06:34:14;100458.75;;;19.21;83.53
50430;BME280;36359;41.556;-8.418;2023-09-19T06:36:41;100459.38;;;19.23;82.66
50430;BME280;36359;41.556;-8.418;2023-09-19T06:39:07;100449.00;;;18.84;81.74
50430;BME280;36359;41.556;-8.418;2023-09-19T06:41:37;100462.19;;;18.95;83.51
50430;BME280;36359;41.556;-8.418;2023-09-19T06:44:10;100466.66;;;19.03;83.03
50430;BME280;36359;41.556;-8.418;2023-09-19T06:46:35;100466.56;;;18.40;83.12
50430;BME280;36359;41.556;-8.418;2023-09-19T06:49:04;100464.81;;;17.89;85.84
50430;BME280;36359;41.556;-8.418;2023-09-19T06:51:32;100462.47;;;18.08;88.57
50430;BME280;36359;41.556;-8.418;2023-09-19T06:54:01;100460.75;;;18.28;87.77
50430;BME280;36359;41.556;-8.418;2023-09-19T06:56:27;100459.06;;;18.06;85.40
50430;BME280;36359;41.556;-8.418;2023-09-19T06:58:52;100470.47;;;17.52;86.65
50430;BME280;36359;41.556;-8.418;2023-09-19T07:01:18;100460.22;;;16.71;90.73
50430;BME280;36359;41.556;-8.418;2023-09-19T07:03:44;100470.00;;;16.51;92.27
50430;BME280;36359;41.556;-8.418;2023-09-19T07:06:11;100454.81;;;16.02;95.92
50430;BME280;36359;41.556;-8.418;2023-09-19T07:08:38;100467.00;;;15.77;100.00
50430;BME280;36359;41.556;-8.418;2023-09-19T07:11:04;100473.69;;;15.97;100.00
50430;BME280;36359;41.556;-8.418;2023-09-19T07:13:31;100469.06;;;15.98;100.00
50430;BME280;36359;41.556;-8.418;2023-09-19T07:16:01;100471.31;;;16.17;100.00
50430;BME280;36359;41.556;-8.418;2023-09-19T07:18:26;100476.91;;;16.24;100.00
50430;BME280;36359;41.556;-8.418;2023-09-19T07:20:56;100473.47;;;16.68;99.74
50430;BME280;36359;41.556;-8.418;2023-09-19T07:23:25;100473.91;;;16.94;97.91
50430;BME280;36359;41.556;-8.418;2023-09-19T07:25:56;100475.09;;;16.77;97.65
50430;BME280;36359;41.556;-8.418;2023-09-19T07:28:22;100477.97;;;16.61;98.02
50430;BME280;36359;41.556;-8.418;2023-09-19T07:30:51;100472.72;;;16.36;100.00
50430;BME280;36359;41.556;-8.418;2023-09-19T07:33:18;100469.66;;;16.31;100.00
50430;BME280;36359;41.556;-8.418;2023-09-19T07:35:47;100471.72;;;16.29;100.00
50430;BME280;36359;41.556;-8.418;2023-09-19T07:38:13;100463.03;;;16.02;100.00
50430;BME280;36359;41.556;-8.418;2023-09-19T07:40:39;100469.84;;;16.67;100.00
50430;BME280;36359;41.556;-8.418;2023-09-19T07:43:05;100468.56;;;16.78;99.62
50430;BME280;36359;41.556;-8.418;2023-09-19T07:45:32;100466.06;;;17.87;95.62
50430;BME280;36359;41.556;-8.418;2023-09-19T07:47:58;100473.41;;;18.72;90.50
50430;BME280;36359;41.556;-8.418;2023-09-19T07:50:25;100469.69;;;19.15;87.93
50430;BME280;36359;41.556;-8.418;2023-09-19T07:52:52;100475.81;;;19.51;85.72
50430;BME280;36359;41.556;-8.418;2023-09-19T07:55:18;100476.06;;;19.57;84.04
50430;BME280;36359;41.556;-8.418;2023-09-19T07:57:45;100477.31;;;18.56;85.25
50430;BME280;36359;41.556;-8.418;2023-09-19T08:00:12;100466.94;;;18.80;88.40
50430;BME280;36359;41.556;-8.418;2023-09-19T08:02:40;100463.91;;;19.38;85.12
50430;BME280;36359;41.556;-8.418;2023-09-19T08:05:08;100464.97;;;19.37;85.94
50430;BME280;36359;41.556;-8.418;2023-09-19T08:07:38;100470.09;;;20.01;82.40
50430;BME280;36359;41.556;-8.418;2023-09-19T08:10:05;100465.28;;;20.30;80.63
50430;BME280;36359;41.556;-8.418;2023-09-19T08:12:34;100466.75;;;20.32;80.50
50430;BME280;36359;41.556;-8.418;2023-09-19T08:15:03;100470.53;;;20.11;80.69
50430;BME280;36359;41.556;-8.418;2023-09-19T08:17:35;100472.78;;;19.33;84.24
50430;BME280;36359;41.556;-8.418;2023-09-19T08:20:01;100458.91;;;18.57;89.72
50430;BME280;36359;41.556;-8.418;2023-09-19T08:22:31;100465.53;;;18.20;93.29
50430;BME280;36359;41.556;-8.418;2023-09-19T08:25:20;100476.94;;;18.66;90.79
50430;BME280;36359;41.556;-8.418;2023-09-19T08:27:51;100473.31;;;19.15;88.47
50430;BME280;36359;41.556;-8.418;2023-09-19T08:30:19;100477.97;;;19.56;86.07
50430;BME280;36359;41.556;-8.418;2023-09-19T08:32:50;100479.25;;;20.22;82.38
50430;BME280;36359;41.556;-8.418;2023-09-19T08:35:16;100477.34;;;20.29;81.96
50430;BME280;36359;41.556;-8.418;2023-09-19T08:37:42;100484.28;;;20.11;83.18
50430;BME280;36359;41.556;-8.418;2023-09-19T08:40:12;100479.44;;;20.07;83.50
50430;BME280;36359;41.556;-8.418;2023-09-19T08:43:07;100483.13;;;20.67;80.23
50430;BME280;36359;41.556;-8.418;2023-09-19T08:45:33;100487.34;;;20.70;79.34
50430;BME280;36359;41.556;-8.418;2023-09-19T08:50:33;100480.34;;;20.47;81.54
50430;BME280;36359;41.556;-8.418;2023-09-19T08:53:10;100480.75;;;20.37;80.90
50430;BME280;36359;41.556;-8.418;2023-09-19T08:55:39;100479.47;;;20.27;81.54
50430;BME280;36359;41.556;-8.418;2023-09-19T08:58:10;100481.34;;;20.06;82.86
50430;BME280;36359;41.556;-8.418;2023-09-19T09:00:36;100478.97;;;19.96;83.73
50430;BME280;36359;41.556;-8.418;2023-09-19T09:03:02;100478.97;;;19.96;82.98
50430;BME280;36359;41.556;-8.418;2023-09-19T09:05:29;100480.88;;;19.48;88.82
50430;BME280;36359;41.556;-8.418;2023-09-19T09:07:58;100480.25;;;19.52;87.24
50430;BME280;36359;41.556;-8.418;2023-09-19T09:10:25;100478.06;;;19.35;88.47
50430;BME280;36359;41.556;-8.418;2023-09-19T09:12:55;100474.56;;;19.54;88.01
50430;BME280;36359;41.556;-8.418;2023-09-19T09:17:52;100469.59;;;19.78;87.87
50430;BME280;36359;41.556;-8.418;2023-09-19T09:20:25;100478.28;;;19.74;88.47
50430;BME280;36359;41.556;-8.418;2023-09-19T09:22:55;100477.03;;;19.90;89.87
50430;BME280;36359;41.556;-8.418;2023-09-19T09:25:54;100480.47;;;19.99;87.68
50430;BME280;36359;41.556;-8.418;2023-09-19T09:28:22;100477.50;;;20.01;85.72
50430;BME280;36359;41.556;-8.418;2023-09-19T09:30:48;100477.06;;;19.97;84.58
50430;BME280;36359;41.556;-8.418;2023-09-19T09:33:14;100476.41;;;19.47;85.88
50430;BME280;36359;41.556;-8.418;2023-09-19T09:35:55;100474.72;;;19.94;84.21
50430;BME280;36359;41.556;-8.418;2023-09-19T09:38:27;100474.94;;;19.99;83.22
50430;BME280;36359;41.556;-8.418;2023-09-19T09:40:55;100465.91;;;20.18;84.20
50430;BME280;36359;41.556;-8.418;2023-09-19T09:43:39;100472.06;;;20.40;84.38
50430;BME280;36359;41.556;-8.418;2023-09-19T09:49:03;100471.47;;;20.72;82.42
50430;BME280;36359;41.556;-8.418;2023-09-19T09:52:06;100472.09;;;20.87;81.45
50430;BME280;36359;41.556;-8.418;2023-09-19T09:54:34;100480.34;;;20.94;82.09
50430;BME280;36359;41.556;-8.418;2023-09-19T09:57:10;100468.44;;;21.00;79.58
50430;BME280;36359;41.556;-8.418;2023-09-19T09:59:59;100468.88;;;20.97;80.02
50430;BME280;36359;41.556;-8.418;2023-09-19T10:02:42;100465.06;;;21.04;80.01
50430;BME280;36359;41.556;-8.418;2023-09-19T10:05:16;100458.03;;;21.08;81.81
50430;BME280;36359;41.556;-8.418;2023-09-19T10:07:49;100457.59;;;21.12;80.40
50430;BME280;36359;41.556;-8.418;2023-09-19T10:10:32;100463.75;;;21.14;80.30
50430;BME280;36359;41.556;-8.418;2023-09-19T10:13:12;100450.34;;;21.30;79.50
50430;BME280;36359;41.556;-8.418;2023-09-19T10:18:11;100452.28;;;21.17;80.44
50430;BME280;36359;41.556;-8.418;2023-09-19T10:20:45;100454.03;;;20.98;82.02
50430;BME280;36359;41.556;-8.418;2023-09-19T10:23:12;100452.25;;;21.30;79.80
50430;BME280;36359;41.556;-8.418;2023-09-19T10:25:46;100439.50;;;21.29;81.09
50430;BME280;36359;41.556;-8.418;2023-09-19T10:28:15;100440.94;;;21.51;80.06
50430;BME280;36359;41.556;-8.418;2023-09-19T10:30:47;100441.63;;;21.33;79.28
50430;BME280;36359;41.556;-8.418;2023-09-19T10:33:20;100435.69;;;21.30;81.15
50430;BME280;36359;41.556;-8.418;2023-09-19T10:35:48;100433.59;;;21.25;79.92
50430;BME280;36359;41.556;-8.418;2023-09-19T10:38:23;100429.28;;;21.49;79.16
50430;BME280;36359;41.556;-8.418;2023-09-19T10:40:51;100431.78;;;21.58;78.43
50430;BME280;36359;41.556;-8.418;2023-09-19T10:43:21;100435.69;;;21.82;77.03
50430;BME280;36359;41.556;-8.418;2023-09-19T10:48:31;100424.22;;;22.16;75.21
50430;BME280;36359;41.556;-8.418;2023-09-19T10:53:29;100418.28;;;22.13;76.91
50430;BME280;36359;41.556;-8.418;2023-09-19T10:55:57;100413.50;;;22.33;75.13
50430;BME280;36359;41.556;-8.418;2023-09-19T10:58:29;100414.41;;;22.27;73.90
50430;BME280;36359;41.556;-8.418;2023-09-19T11:01:00;100412.13;;;22.42;73.74
50430;BME280;36359;41.556;-8.418;2023-09-19T11:03:38;100418.00;;;22.53;73.39
50430;BME280;36359;41.556;-8.418;2023-09-19T11:06:17;100421.31;;;22.61;71.96
50430;BME280;36359;41.556;-8.418;2023-09-19T11:09:11;100418.41;;;22.56;71.73
50430;BME280;36359;41.556;-8.418;2023-09-19T11:11:41;100413.03;;;22.61;70.26
50430;BME280;36359;41.556;-8.418;2023-09-19T11:14:37;100411.44;;;22.72;71.37
50430;BME280;36359;41.556;-8.418;2023-09-19T11:30:39;100404.72;;;22.61;67.44
50430;BME280;36359;41.556;-8.418;2023-09-19T11:33:21;100401.03;;;22.67;68.59
50430;BME280;36359;41.556;-8.418;2023-09-19T11:43:53;100396.84;;;22.83;68.28
50430;BME280;36359;41.556;-8.418;2023-09-19T11:46:24;100387.16;;;22.74;67.03
50430;BME280;36359;41.556;-8.418;2023-09-19T11:48:51;100384.88;;;22.89;67.06
50430;BME280;36359;41.556;-8.418;2023-09-19T11:51:24;100372.19;;;22.82;66.61
50430;BME280;36359;41.556;-8.418;2023-09-19T11:53:55;100372.88;;;22.77;66.63
50430;BME280;36359;41.556;-8.418;2023-09-19T11:56:22;100370.97;;;23.15;66.08
50430;BME280;36359;41.556;-8.418;2023-09-19T11:58:51;100372.59;;;23.22;65.25
50430;BME280;36359;41.556;-8.418;2023-09-19T12:01:30;100369.91;;;23.34;67.25
50430;BME280;36359;41.556;-8.418;2023-09-19T12:03:59;100374.88;;;23.44;66.65
50430;BME280;36359;41.556;-8.418;2023-09-19T12:06:29;100367.75;;;23.66;64.05
50430;BME280;36359;41.556;-8.418;2023-09-19T12:08:55;100367.19;;;23.46;63.98
50430;BME280;36359;41.556;-8.418;2023-09-19T12:11:23;100357.97;;;23.33;65.97
50430;BME280;36359;41.556;-8.418;2023-09-19T12:13:51;100354.22;;;23.58;65.79
50430;BME280;36359;41.556;-8.418;2023-09-19T12:16:20;100356.41;;;23.68;65.99
50430;BME280;36359;41.556;-8.418;2023-09-19T12:18:53;100353.66;;;23.38;66.43
50430;BME280;36359;41.556;-8.418;2023-09-19T12:21:27;100347.94;;;23.51;65.68
50430;BME280;36359;41.556;-8.418;2023-09-19T12:24:11;100342.28;;;23.76;65.63
50430;BME280;36359;41.556;-8.418;2023-09-19T12:26:43;100337.25;;;23.85;64.50
50430;BME280;36359;41.556;-8.418;2023-09-19T12:29:13;100343.53;;;23.92;64.72
50430;BME280;36359;41.556;-8.418;2023-09-19T12:31:49;100331.16;;;23.94;64.39
50430;BME280;36359;41.556;-8.418;2023-09-19T12:34:27;100332.69;;;23.30;63.75
50430;BME280;36359;41.556;-8.418;2023-09-19T12:37:06;100329.16;;;23.53;63.96
50430;BME280;36359;41.556;-8.418;2023-09-19T12:39:46;100324.19;;;23.73;63.67
50430;BME280;36359;41.556;-8.418;2023-09-19T12:42:24;100322.84;;;24.06;63.74
50430;BME280;36359;41.556;-8.418;2023-09-19T12:44:54;100320.94;;;24.18;63.02
50430;BME280;36359;41.556;-8.418;2023-09-19T12:47:24;100322.25;;;24.28;61.67
50430;BME280;36359;41.556;-8.418;2023-09-19T12:50:13;100309.56;;;24.08;62.14
50430;BME280;36359;41.556;-8.418;2023-09-19T12:52:52;100310.41;;;24.09;61.58
50430;BME280;36359;41.556;-8.418;2023-09-19T12:55:29;100313.69;;;24.41;60.57
50430;BME280;36359;41.556;-8.418;2023-09-19T13:00:44;100306.94;;;24.13;58.58
50430;BME280;36359;41.556;-8.418;2023-09-19T13:03:18;100296.47;;;24.15;59.11
50430;BME280;36359;41.556;-8.418;2023-09-19T13:06:01;100304.78;;;24.39;58.73
50430;BME280;36359;41.556;-8.418;2023-09-19T13:08:35;100291.50;;;24.41;57.79
50430;BME280;36359;41.556;-8.418;2023-09-19T13:11:11;100287.75;;;24.35;58.82
50430;BME280;36359;41.556;-8.418;2023-09-19T13:13:51;100275.97;;;24.40;60.37
50430;BME280;36359;41.556;-8.418;2023-09-19T13:16:21;100282.13;;;24.42;60.56
50430;BME280;36359;41.556;-8.418;2023-09-19T13:18:52;100280.53;;;24.34;58.24
50430;BME280;36359;41.556;-8.418;2023-09-19T13:21:39;100266.81;;;24.16;56.80
50430;BME280;36359;41.556;-8.418;2023-09-19T13:24:25;100259.81;;;24.48;59.19
50430;BME280;36359;41.556;-8.418;2023-09-19T13:26:56;100255.38;;;24.47;59.75
50430;BME280;36359;41.556;-8.418;2023-09-19T13:29:22;100257.53;;;24.57;58.05
50430;BME280;36359;41.556;-8.418;2023-09-19T13:31:49;100255.69;;;24.75;57.04
50430;BME280;36359;41.556;-8.418;2023-09-19T13:34:15;100250.38;;;24.73;55.99
50430;BME280;36359;41.556;-8.418;2023-09-19T13:36:43;100247.47;;;24.80;55.70
50430;BME280;36359;41.556;-8.418;2023-09-19T13:39:09;100243.00;;;24.79;54.51
50430;BME280;36359;41.556;-8.418;2023-09-19T13:41:35;100243.44;;;24.87;54.86
50430;BME280;36359;41.556;-8.418;2023-09-19T13:44:04;100245.47;;;25.04;55.10
50430;BME280;36359;41.556;-8.418;2023-09-19T13:46:30;100226.91;;;24.92;55.12
50430;BME280;36359;41.556;-8.418;2023-09-19T13:48:59;100235.53;;;24.67;57.18
50430;BME280;36359;41.556;-8.418;2023-09-19T13:51:28;100227.75;;;24.93;56.69
50430;BME280;36359;41.556;-8.418;2023-09-19T13:53:55;100231.41;;;25.10;53.94